createdAt,value
2023-06-10T00:01:56.564Z,16.59
2023-06-10T00:04:24.425Z,16.56
2023-06-10T00:06:54.963Z,16.57
2023-06-10T00:09:22.842Z,16.58
2023-06-10T00:11:50.781Z,16.58
2023-06-10T00:14:18.948Z,16.60
2023-06-10T00:16:47.188Z,16.60
2023-06-10T00:19:16.665Z,16.63
2023-06-10T00:21:45.947Z,16.62
2023-06-10T00:24:15.353Z,16.66
2023-06-10T00:26:43.620Z,16.67
2023-06-10T00:29:11.457Z,16.67
2023-06-10T00:31:40.110Z,16.68
2023-06-10T00:34:08.428Z,16.68
2023-06-10T00:36:37.169Z,16.66
2023-06-10T00:39:05.470Z,16.65
2023-06-10T00:41:35.262Z,16.64
2023-06-10T00:44:03.356Z,16.62
2023-06-10T00:46:33.366Z,16.61
2023-06-10T00:49:02.300Z,16.59
2023-06-10T00:51:30.208Z,16.55
2023-06-10T00:53:58.592Z,16.51
2023-06-10T00:56:26.983Z,16.55
2023-06-10T00:58:56.359Z,16.55
2023-06-10T01:01:25.098Z,16.59
2023-06-10T01:03:53.049Z,16.61
2023-06-10T01:06:25.885Z,16.61
2023-06-10T01:08:58.415Z,16.62
2023-06-10T01:11:31.053Z,16.63
2023-06-10T01:14:00.910Z,16.64
2023-06-10T01:16:29.602Z,16.65
2023-06-10T01:18:57.834Z,16.62
2023-06-10T01:21:27.610Z,16.62
2023-06-10T01:23:56.984Z,16.62
2023-06-10T01:26:27.190Z,16.55
2023-06-10T01:28:57.536Z,16.47
2023-06-10T01:31:34.955Z,16.43
2023-06-10T01:34:04.545Z,16.40
2023-06-10T01:36:34.538Z,16.43
2023-06-10T01:39:03.058Z,16.43
2023-06-10T01:41:31.111Z,16.44
2023-06-10T01:43:58.930Z,16.48
2023-06-10T01:46:26.860Z,16.45
2023-06-10T01:48:54.736Z,16.40
2023-06-10T01:51:22.669Z,16.40
2023-06-10T01:53:51.901Z,16.38
2023-06-10T01:56:21.112Z,16.34
2023-06-10T01:58:49.038Z,16.27
2023-06-10T02:01:16.994Z,16.20
2023-06-10T02:03:45.140Z,16.13
2023-06-10T02:06:13.076Z,16.09
2023-06-10T02:11:10.796Z,16.07
2023-06-10T02:13:40.492Z,16.06
2023-06-10T02:16:08.565Z,16.04
2023-06-10T02:18:36.427Z,16.02
2023-06-10T02:21:04.379Z,16.00
2023-06-10T02:23:32.396Z,15.98
2023-06-10T02:26:00.312Z,15.98
2023-06-10T02:28:29.632Z,15.95
2023-06-10T02:30:58.318Z,15.93
2023-06-10T02:33:26.289Z,15.90
2023-06-10T02:35:54.173Z,15.88
2023-06-10T02:38:22.070Z,15.94
2023-06-10T02:40:49.938Z,15.94
2023-06-10T02:43:17.850Z,15.94
2023-06-10T02:45:47.411Z,15.87
2023-06-10T02:48:15.335Z,15.88
2023-06-10T02:50:43.226Z,15.85
2023-06-10T02:53:11.100Z,15.87
2023-06-10T02:55:39.396Z,15.87
2023-06-10T02:58:07.289Z,15.84
2023-06-10T03:00:35.483Z,15.86
2023-06-10T03:03:06.358Z,15.90
2023-06-10T03:05:34.773Z,15.89
2023-06-10T03:08:02.654Z,15.84
2023-06-10T03:10:30.526Z,15.83
2023-06-10T03:12:58.402Z,15.87
2023-06-10T03:15:26.762Z,15.86
2023-06-10T03:17:54.656Z,15.87
2023-06-10T03:20:24.607Z,15.88
2023-06-10T03:22:52.703Z,15.86
2023-06-10T03:25:22.055Z,15.92
2023-06-10T03:27:49.964Z,15.93
2023-06-10T03:30:18.134Z,15.97
2023-06-10T03:32:46.172Z,16.02
2023-06-10T03:35:14.028Z,16.06
2023-06-10T03:37:43.310Z,16.06
2023-06-10T03:40:11.399Z,16.06
2023-06-10T03:42:39.310Z,16.14
2023-06-10T03:45:08.000Z,16.32
2023-06-10T03:47:37.358Z,16.42
2023-06-10T03:50:05.728Z,16.61
2023-06-10T03:52:33.633Z,17.18
2023-06-10T03:55:02.910Z,19.45
2023-06-10T03:57:30.847Z,21.35
2023-06-10T03:59:58.784Z,22.87
2023-06-10T04:02:27.032Z,24.01
2023-06-10T04:04:54.962Z,25.31
2023-06-10T04:07:22.903Z,26.58
2023-06-10T04:09:51.807Z,27.25
2023-06-10T04:12:21.026Z,28.25
2023-06-10T04:14:48.929Z,28.81
2023-06-10T04:17:17.729Z,29.25
2023-06-10T04:19:45.803Z,30.00
2023-06-10T04:22:13.685Z,29.81
2023-06-10T04:24:41.605Z,31.01
2023-06-10T04:27:09.562Z,31.82
2023-06-10T04:29:38.938Z,32.60
2023-06-10T04:32:07.997Z,32.77
2023-06-10T04:34:35.968Z,33.06
2023-06-10T04:37:03.947Z,33.73
2023-06-10T04:39:31.881Z,33.89
2023-06-10T04:41:59.786Z,33.90
2023-06-10T04:44:27.623Z,33.18
2023-06-10T04:46:57.272Z,33.18
2023-06-10T04:49:25.325Z,34.12
2023-06-10T04:51:53.215Z,34.28
2023-06-10T04:54:21.059Z,32.72
2023-06-10T04:56:48.946Z,33.63
2023-06-10T04:59:16.822Z,32.37
2023-06-10T05:01:44.857Z,32.88
2023-06-10T05:04:14.209Z,32.14
2023-06-10T05:06:42.174Z,32.89
2023-06-10T05:09:10.058Z,32.56
2023-06-10T05:11:37.900Z,30.79
2023-06-10T05:14:06.469Z,31.55
2023-06-10T05:16:34.411Z,30.99
2023-06-10T05:19:02.460Z,29.19
2023-06-10T05:21:32.366Z,30.41
2023-06-10T05:24:00.694Z,30.35
2023-06-10T05:26:30.064Z,32.10
2023-06-10T05:28:57.979Z,32.71
2023-06-10T05:31:25.891Z,33.81
2023-06-10T05:33:54.052Z,34.24
2023-06-10T05:36:22.150Z,33.82
2023-06-10T05:38:51.487Z,32.68
2023-06-10T05:41:19.452Z,31.83
2023-06-10T05:43:47.624Z,31.25
2023-06-10T05:46:16.029Z,32.10
2023-06-10T05:48:44.044Z,32.43
2023-06-10T05:51:12.311Z,33.28
2023-06-10T05:53:41.082Z,33.95
2023-06-10T05:56:10.393Z,32.49
2023-06-10T05:58:38.226Z,33.06
2023-06-10T06:01:06.362Z,32.38
2023-06-10T06:03:34.512Z,31.77
2023-06-10T06:06:02.500Z,31.65
2023-06-10T06:08:30.360Z,30.28
2023-06-10T06:10:58.243Z,30.10
2023-06-10T06:13:27.522Z,30.24
2023-06-10T06:15:55.464Z,29.17
2023-06-10T06:18:23.392Z,28.26
2023-06-10T06:20:52.114Z,28.81
2023-06-10T06:23:19.967Z,29.15
2023-06-10T06:25:47.914Z,29.71
2023-06-10T06:28:16.004Z,28.19
2023-06-10T06:30:45.324Z,28.54
2023-06-10T06:33:15.510Z,28.34
2023-06-10T06:35:46.754Z,29.11
2023-06-10T06:38:14.618Z,28.08
2023-06-10T06:40:42.514Z,28.91
2023-06-10T06:43:10.432Z,29.06
2023-06-10T06:45:38.300Z,28.94
2023-06-10T06:48:08.124Z,27.71
2023-06-10T06:50:36.128Z,27.27
2023-06-10T06:53:03.989Z,27.12
2023-06-10T06:55:32.016Z,27.05
2023-06-10T06:58:03.906Z,26.14
2023-06-10T07:00:31.903Z,25.44
2023-06-10T07:02:59.842Z,25.77
2023-06-10T07:05:29.498Z,25.30
2023-06-10T07:07:57.476Z,24.82
2023-06-10T07:10:25.607Z,25.47
2023-06-10T07:12:53.736Z,25.57
2023-06-10T07:15:21.753Z,24.87
2023-06-10T07:17:49.742Z,25.10
2023-06-10T07:20:19.315Z,24.78
2023-06-10T07:22:48.640Z,24.91
2023-06-10T07:25:17.160Z,25.02
2023-06-10T07:27:45.167Z,24.94
2023-06-10T07:30:13.650Z,25.02
2023-06-10T07:32:43.049Z,24.91
2023-06-10T07:35:12.025Z,24.99
2023-06-10T07:37:40.302Z,24.80
2023-06-10T07:40:11.864Z,24.60
2023-06-10T07:42:39.864Z,25.06
2023-06-10T07:45:08.449Z,24.73
2023-06-10T07:47:37.435Z,24.82
2023-06-10T07:50:05.638Z,24.56
2023-06-10T07:52:33.527Z,24.91
2023-06-10T07:55:01.486Z,24.18
2023-06-10T07:57:32.858Z,24.14
2023-06-10T08:00:01.470Z,24.29
2023-06-10T08:02:29.426Z,24.43
2023-06-10T08:04:57.358Z,24.44
2023-06-10T08:07:25.278Z,24.53
2023-06-10T08:09:53.135Z,24.18
2023-06-10T08:12:21.585Z,24.10
2023-06-10T08:14:51.182Z,24.32
2023-06-10T08:17:19.097Z,24.05
2023-06-10T08:19:47.081Z,24.33
2023-06-10T08:22:15.976Z,24.28
2023-06-10T08:24:44.312Z,23.82
2023-06-10T08:27:12.801Z,23.46
2023-06-10T08:29:41.409Z,23.74
2023-06-10T08:32:10.856Z,24.30
2023-06-10T08:34:38.803Z,24.18
2023-06-10T08:37:07.032Z,24.67
2023-06-10T08:39:34.924Z,24.70
2023-06-10T08:42:07.098Z,24.52
2023-06-10T08:44:39.155Z,24.95
2023-06-10T08:47:10.538Z,24.90
2023-06-10T08:49:40.957Z,24.62
2023-06-10T08:52:09.472Z,24.73
2023-06-10T08:54:39.160Z,24.26
2023-06-10T08:57:08.630Z,24.23
2023-06-10T08:59:36.765Z,24.78
2023-06-10T09:02:05.202Z,24.59
2023-06-10T09:04:33.266Z,24.80
2023-06-10T09:07:02.927Z,24.93
2023-06-10T09:09:31.811Z,24.90
2023-06-10T09:12:00.266Z,25.04
2023-06-10T09:14:28.288Z,25.46
2023-06-10T09:16:58.199Z,25.61
2023-06-10T09:19:26.475Z,25.83
2023-06-10T09:21:54.391Z,26.10
2023-06-10T09:24:25.078Z,26.14
2023-06-10T09:26:53.083Z,25.98
2023-06-10T09:29:20.924Z,26.26
2023-06-10T09:31:49.272Z,26.19
2023-06-10T09:34:18.322Z,26.59
2023-06-10T09:36:46.442Z,25.96
2023-06-10T09:39:22.375Z,26.06
2023-06-10T09:41:52.050Z,25.70
2023-06-10T09:44:20.640Z,25.81
2023-06-10T09:46:49.019Z,25.66
2023-06-10T09:49:18.079Z,25.44
2023-06-10T09:51:53.369Z,25.81
2023-06-10T09:54:21.675Z,26.31
2023-06-10T09:56:50.100Z,26.19
2023-06-10T09:59:30.326Z,25.44
2023-06-10T10:01:58.461Z,25.25
2023-06-10T10:04:26.976Z,25.08
2023-06-10T10:06:55.083Z,24.73
2023-06-10T10:09:23.361Z,24.60
2023-06-10T10:11:52.022Z,24.47
2023-06-10T10:14:22.330Z,24.31
2023-06-10T10:16:52.059Z,23.62
2023-06-10T10:19:25.577Z,23.43
2023-06-10T10:21:55.778Z,23.22
2023-06-10T10:24:25.657Z,23.17
2023-06-10T10:26:56.873Z,23.09
2023-06-10T10:29:28.344Z,22.97
2023-06-10T10:31:59.143Z,23.00
2023-06-10T10:34:33.515Z,23.13
2023-06-10T10:37:04.614Z,23.48
2023-06-10T10:39:37.145Z,23.49
2023-06-10T10:42:11.883Z,23.86
2023-06-10T10:44:45.467Z,24.18
2023-06-10T10:47:18.309Z,24.35
2023-06-10T10:49:51.191Z,24.35
2023-06-10T10:52:22.283Z,24.44
2023-06-10T10:54:58.433Z,24.71
2023-06-10T10:57:33.703Z,24.73
2023-06-10T11:00:07.116Z,24.81
2023-06-10T11:02:42.622Z,24.57
2023-06-10T11:05:14.538Z,24.76
2023-06-10T11:07:46.557Z,25.28
2023-06-10T11:10:18.028Z,25.39
2023-06-10T11:12:57.638Z,25.73
2023-06-10T11:15:30.223Z,26.04
2023-06-10T11:18:20.215Z,25.79
2023-06-10T11:21:00.679Z,26.13
2023-06-10T11:23:35.073Z,26.06
2023-06-10T11:26:15.971Z,26.30
2023-06-10T11:28:44.573Z,26.59
2023-06-10T11:31:21.943Z,26.62
2023-06-10T11:33:50.525Z,26.14
2023-06-10T11:36:19.370Z,26.31
2023-06-10T11:38:48.460Z,26.57
2023-06-10T11:41:16.981Z,26.92
2023-06-10T11:43:45.521Z,26.88
2023-06-10T11:46:13.733Z,27.21
2023-06-10T11:48:50.873Z,27.51
2023-06-10T11:51:19.585Z,26.95
2023-06-10T11:53:47.684Z,26.85
2023-06-10T11:56:15.743Z,26.27
2023-06-10T11:58:46.312Z,25.57
2023-06-10T12:01:28.270Z,25.17
2023-06-10T12:04:08.384Z,24.96
2023-06-10T12:06:44.458Z,24.68
2023-06-10T12:09:25.314Z,24.65
2023-06-10T12:11:56.930Z,24.81
2023-06-10T12:14:43.311Z,24.68
2023-06-10T12:17:11.608Z,24.65
2023-06-10T12:19:42.264Z,24.76
2023-06-10T12:22:11.397Z,25.17
2023-06-10T12:24:46.879Z,25.05
2023-06-10T12:27:15.222Z,25.00
2023-06-10T12:29:55.112Z,25.23
2023-06-10T12:32:28.287Z,25.37
2023-06-10T12:35:06.882Z,25.60
2023-06-10T12:37:36.937Z,25.72
2023-06-10T12:40:09.501Z,25.78
2023-06-10T12:42:38.338Z,25.67
2023-06-10T12:45:11.810Z,25.70
2023-06-10T12:47:41.166Z,25.75
2023-06-10T12:50:13.344Z,25.46
2023-06-10T12:52:42.340Z,25.50
2023-06-10T12:55:10.834Z,25.86
2023-06-10T12:57:39.043Z,26.22
2023-06-10T13:00:10.099Z,26.50
2023-06-10T13:02:38.084Z,26.63
2023-06-10T13:05:06.258Z,26.88
2023-06-10T13:07:35.769Z,26.94
2023-06-10T13:10:03.613Z,27.22
2023-06-10T13:12:46.126Z,27.64
2023-06-10T13:15:15.884Z,27.41
2023-06-10T13:17:44.483Z,27.35
2023-06-10T13:20:12.739Z,27.13
2023-06-10T13:22:41.929Z,27.02
2023-06-10T13:25:10.971Z,26.75
2023-06-10T13:27:40.213Z,26.80
2023-06-10T13:30:08.807Z,26.74
2023-06-10T13:32:36.917Z,26.68
2023-06-10T13:35:06.141Z,26.09
2023-06-10T13:37:34.949Z,25.86
2023-06-10T13:40:05.033Z,25.79
2023-06-10T13:42:33.277Z,25.67
2023-06-10T13:45:01.131Z,25.62
2023-06-10T13:47:29.371Z,25.45
2023-06-10T13:49:57.351Z,25.08
2023-06-10T13:52:25.322Z,24.82
2023-06-10T13:54:53.222Z,24.54
2023-06-10T13:57:22.721Z,24.33
2023-06-10T13:59:50.632Z,24.01
2023-06-10T14:02:18.580Z,24.17
2023-06-10T14:04:46.541Z,23.93
2023-06-10T14:07:14.476Z,24.08
2023-06-10T14:09:42.372Z,24.04
2023-06-10T14:12:10.502Z,24.07
2023-06-10T14:14:39.777Z,24.10
2023-06-10T14:17:08.025Z,23.90
2023-06-10T14:19:35.969Z,23.93
2023-06-10T14:22:06.519Z,24.13
2023-06-10T14:24:36.283Z,24.31
2023-06-10T14:27:04.165Z,24.49
2023-06-10T14:29:32.912Z,24.43
2023-06-10T14:32:02.491Z,24.36
2023-06-10T14:34:34.784Z,24.58
2023-06-10T14:37:04.570Z,24.68
2023-06-10T14:39:32.562Z,24.42
2023-06-10T14:42:00.413Z,24.56
2023-06-10T14:44:28.822Z,24.54
2023-06-10T14:46:56.743Z,24.48
2023-06-10T14:49:25.970Z,24.39
2023-06-10T14:51:54.050Z,24.34
2023-06-10T14:54:21.871Z,24.24
2023-06-10T14:56:49.844Z,24.19
2023-06-10T14:59:17.742Z,24.00
2023-06-10T15:01:45.689Z,23.67
2023-06-10T15:04:13.717Z,23.84
2023-06-10T15:06:43.751Z,23.78
2023-06-10T15:09:11.671Z,24.02
2023-06-10T15:11:39.971Z,24.02
2023-06-10T15:14:07.875Z,24.14
2023-06-10T15:16:36.629Z,24.01
2023-06-10T15:19:04.704Z,24.07
2023-06-10T15:21:32.623Z,23.97
2023-06-10T15:24:01.960Z,24.19
2023-06-10T15:26:29.901Z,23.79
2023-06-10T15:28:57.862Z,23.82
2023-06-10T15:31:26.020Z,23.89
2023-06-10T15:33:53.952Z,23.89
2023-06-10T15:36:21.963Z,23.87
2023-06-10T15:38:49.791Z,24.09
2023-06-10T15:41:19.248Z,24.11
2023-06-10T15:43:47.685Z,24.08
2023-06-10T15:46:15.645Z,23.89
2023-06-10T15:48:43.619Z,23.45
2023-06-10T15:51:11.841Z,23.04
2023-06-10T15:53:39.668Z,23.06
2023-06-10T15:56:07.605Z,22.74
2023-06-10T15:58:36.885Z,22.37
2023-06-10T16:01:05.165Z,22.22
2023-06-10T16:03:33.209Z,22.14
2023-06-10T16:06:01.226Z,22.06
2023-06-10T16:08:29.712Z,21.89
2023-06-10T16:10:57.651Z,21.91
2023-06-10T16:13:25.528Z,21.73
2023-06-10T16:15:54.896Z,21.78
2023-06-10T16:18:22.830Z,21.73
2023-06-10T16:20:50.843Z,21.61
2023-06-10T16:23:18.742Z,21.52
2023-06-10T16:25:47.007Z,21.47
2023-06-10T16:28:14.945Z,21.46
2023-06-10T16:30:42.854Z,21.46
2023-06-10T16:33:12.248Z,21.42
2023-06-10T16:35:40.088Z,21.39
2023-06-10T16:38:07.945Z,21.44
2023-06-10T16:40:35.845Z,21.33
2023-06-10T16:43:03.838Z,21.29
2023-06-10T16:45:31.846Z,21.31
2023-06-10T16:47:59.844Z,21.46
2023-06-10T16:50:29.230Z,21.39
2023-06-10T16:52:57.118Z,21.44
2023-06-10T16:55:25.107Z,21.47
2023-06-10T16:57:53.052Z,21.46
2023-06-10T17:00:25.097Z,21.42
2023-06-10T17:02:53.332Z,21.33
2023-06-10T17:05:21.292Z,21.24
2023-06-10T17:07:50.814Z,21.31
2023-06-10T17:10:18.733Z,21.26
2023-06-10T17:12:47.921Z,21.27
2023-06-10T17:15:16.671Z,21.22
2023-06-10T17:17:44.636Z,21.26
2023-06-10T17:20:13.191Z,21.25
2023-06-10T17:22:41.148Z,21.21
2023-06-10T17:25:11.006Z,21.20
2023-06-10T17:27:39.225Z,21.17
2023-06-10T17:30:09.614Z,21.19
2023-06-10T17:32:42.322Z,21.11
2023-06-10T17:35:11.578Z,21.09
2023-06-10T17:37:39.886Z,21.05
2023-06-10T17:40:08.878Z,21.04
2023-06-10T17:42:41.105Z,20.99
2023-06-10T17:45:09.989Z,20.99
2023-06-10T17:47:40.654Z,20.98
2023-06-10T17:50:09.046Z,21.00
2023-06-10T17:52:36.903Z,20.97
2023-06-10T17:55:05.098Z,20.96
2023-06-10T17:57:36.054Z,20.89
2023-06-10T18:00:06.549Z,20.86
2023-06-10T18:02:34.530Z,20.86
2023-06-10T18:05:02.542Z,20.83
2023-06-10T18:07:30.641Z,20.78
2023-06-10T18:09:58.548Z,20.74
2023-06-10T18:12:29.625Z,20.74
2023-06-10T18:14:57.457Z,20.73
2023-06-10T18:17:30.298Z,20.68
2023-06-10T18:19:58.266Z,20.67
2023-06-10T18:22:26.192Z,20.66
2023-06-10T18:24:54.635Z,20.61
2023-06-10T18:27:22.636Z,20.57
2023-06-10T18:29:50.535Z,20.53
2023-06-10T18:32:27.880Z,20.47
2023-06-10T18:34:57.193Z,20.46
2023-06-10T18:37:25.997Z,20.44
2023-06-10T18:40:02.041Z,20.40
2023-06-10T18:42:30.619Z,20.37
2023-06-10T18:44:58.561Z,20.36
2023-06-10T18:47:26.756Z,20.36
2023-06-10T18:49:54.895Z,20.35
2023-06-10T18:52:24.515Z,20.33
2023-06-10T18:54:52.616Z,20.33
2023-06-10T18:57:20.778Z,20.30
2023-06-10T18:59:48.686Z,20.31
2023-06-10T19:02:16.926Z,20.29
2023-06-10T19:04:45.433Z,20.29
2023-06-10T19:07:18.396Z,20.25
2023-06-10T19:09:53.859Z,20.26
2023-06-10T19:12:25.226Z,20.26
2023-06-10T19:14:56.112Z,20.24
2023-06-10T19:17:27.325Z,20.22
2023-06-10T19:20:07.793Z,20.18
2023-06-10T19:22:43.637Z,20.15
2023-06-10T19:25:15.758Z,20.12
2023-06-10T19:27:44.724Z,20.11
2023-06-10T19:30:13.197Z,20.07
2023-06-10T19:32:41.616Z,20.07
2023-06-10T19:35:10.506Z,20.06
2023-06-10T19:37:38.696Z,20.01
2023-06-10T19:40:07.356Z,19.96
2023-06-10T19:42:38.460Z,19.95
2023-06-10T19:45:07.181Z,19.96
2023-06-10T19:47:35.472Z,20.01
2023-06-10T19:50:03.357Z,19.97
2023-06-10T19:52:33.432Z,19.95
2023-06-10T19:55:01.598Z,19.90
2023-06-10T19:57:29.634Z,19.88
2023-06-10T19:59:58.934Z,19.88
2023-06-10T20:02:33.209Z,19.88
2023-06-10T20:05:01.550Z,19.89
2023-06-10T20:07:29.790Z,19.86
2023-06-10T20:09:58.656Z,19.82
2023-06-10T20:12:26.737Z,19.78
2023-06-10T20:14:54.561Z,19.76
2023-06-10T20:17:24.173Z,19.75
2023-06-10T20:19:53.724Z,19.73
2023-06-10T20:22:22.098Z,19.69
2023-06-10T20:24:52.744Z,19.66
2023-06-10T20:27:20.823Z,19.65
2023-06-10T20:29:48.900Z,19.65
2023-06-10T20:32:17.040Z,19.59
2023-06-10T20:34:46.614Z,19.52
2023-06-10T20:37:14.613Z,19.48
2023-06-10T20:39:43.024Z,19.44
2023-06-10T20:42:12.530Z,19.42
2023-06-10T20:44:42.336Z,19.38
2023-06-10T20:47:10.741Z,19.38
2023-06-10T20:49:38.665Z,19.42
2023-06-10T20:52:08.401Z,19.40
2023-06-10T20:54:36.594Z,19.39
2023-06-10T20:57:18.723Z,19.41
2023-06-10T20:59:46.796Z,19.39
2023-06-10T21:02:14.804Z,19.37
2023-06-10T21:04:42.701Z,19.35
2023-06-10T21:07:12.252Z,19.31
2023-06-10T21:09:40.106Z,19.30
2023-06-10T21:12:08.532Z,19.25
2023-06-10T21:14:36.503Z,19.22
2023-06-10T21:17:04.713Z,19.20
2023-06-10T21:19:32.604Z,19.21
2023-06-10T21:22:02.524Z,19.17
2023-06-10T21:24:33.631Z,19.12
2023-06-10T21:27:01.516Z,19.15
2023-06-10T21:29:29.860Z,19.10
2023-06-10T21:31:58.242Z,19.11
2023-06-10T21:34:26.423Z,19.15
2023-06-10T21:36:54.636Z,19.14
2023-06-10T21:39:22.545Z,19.11
2023-06-10T21:41:51.974Z,19.11
2023-06-10T21:44:19.868Z,19.07
2023-06-10T21:46:47.778Z,19.06
2023-06-10T21:49:15.788Z,19.07
2023-06-10T21:51:44.330Z,19.04
2023-06-10T21:54:12.168Z,19.07
2023-06-10T21:56:40.048Z,19.04
2023-06-10T21:59:10.254Z,19.00
2023-06-10T22:01:38.512Z,18.98
2023-06-10T22:04:06.683Z,18.91
2023-06-10T22:06:35.301Z,18.86
2023-06-10T22:09:03.305Z,18.81
2023-06-10T22:11:31.253Z,18.79
2023-06-10T22:13:59.117Z,18.77
2023-06-10T22:16:28.720Z,18.73
2023-06-10T22:18:56.737Z,18.72
2023-06-10T22:21:25.186Z,18.67
2023-06-10T22:23:53.234Z,18.66
2023-06-10T22:26:21.091Z,18.68
2023-06-10T22:28:49.068Z,18.69
2023-06-10T22:31:17.100Z,18.69
2023-06-10T22:33:46.460Z,18.70
2023-06-10T22:36:14.440Z,18.71
2023-06-10T22:38:42.252Z,18.70
2023-06-10T22:41:10.112Z,18.70
2023-06-10T22:43:38.054Z,18.75
2023-06-10T22:46:05.894Z,18.71
2023-06-10T22:48:34.177Z,18.74
2023-06-10T22:51:03.675Z,18.72
2023-06-10T22:53:31.803Z,18.73
2023-06-10T22:55:59.903Z,18.71
2023-06-10T22:58:28.051Z,18.72
2023-06-10T23:00:56.039Z,18.77
2023-06-10T23:03:23.849Z,18.73
2023-06-10T23:05:51.770Z,18.73
2023-06-10T23:08:21.054Z,18.71
2023-06-10T23:10:49.014Z,18.75
2023-06-10T23:13:16.965Z,18.68
2023-06-10T23:15:44.908Z,18.71
2023-06-10T23:18:13.805Z,18.69
2023-06-10T23:20:43.118Z,18.76
2023-06-10T23:23:14.603Z,18.71
2023-06-10T23:25:46.012Z,18.73
2023-06-10T23:28:13.988Z,18.71
2023-06-10T23:30:41.929Z,18.69
2023-06-10T23:33:09.978Z,18.68
2023-06-10T23:35:37.989Z,18.64
2023-06-10T23:38:05.933Z,18.62
2023-06-10T23:40:33.793Z,18.63
2023-06-10T23:43:03.085Z,18.63
2023-06-10T23:45:31.073Z,18.64
2023-06-10T23:47:59.081Z,18.67
2023-06-10T23:50:26.992Z,18.62
2023-06-10T23:52:54.870Z,18.61
2023-06-10T23:55:24.217Z,18.57
2023-06-10T23:57:52.099Z,18.56
